sensor_id;sensor_type;location;lat;lon;timestamp;temperature;humidity
14277;DHT22;7222;57.346;12.150;2022-12-31T00:00:13;7.10;99.90
14277;DHT22;7222;57.346;12.150;2022-12-31T00:02:40;7.10;99.90
14277;DHT22;7222;57.346;12.150;2022-12-31T00:05:08;7.10;99.90
14277;DHT22;7222;57.346;12.150;2022-12-31T00:07:35;7.20;99.90
14277;DHT22;7222;57.346;12.150;2022-12-31T00:10:03;7.20;99.90
14277;DHT22;7222;57.346;12.150;2022-12-31T00:14:59;7.30;99.90
14277;DHT22;7222;57.346;12.150;2022-12-31T00:17:26;7.20;99.90
14277;DHT22;7222;57.346;12.150;2022-12-31T00:19:53;7.40;99.90
14277;DHT22;7222;57.346;12.150;2022-12-31T00:22:20;7.30;99.90
14277;DHT22;7222;57.346;12.150;2022-12-31T00:24:47;7.30;99.90
14277;DHT22;7222;57.346;12.150;2022-12-31T00:27:15;7.40;99.90
14277;DHT22;7222;57.346;12.150;2022-12-31T00:29:43;7.30;99.90
14277;DHT22;7222;57.346;12.150;2022-12-31T00:32:10;7.40;99.90
14277;DHT22;7222;57.346;12.150;2022-12-31T00:34:37;7.40;99.90
14277;DHT22;7222;57.346;12.150;2022-12-31T00:37:05;7.50;99.90
14277;DHT22;7222;57.346;12.150;2022-12-31T00:39:31;7.50;99.90
14277;DHT22;7222;57.346;12.150;2022-12-31T00:41:58;7.60;99.90
14277;DHT22;7222;57.346;12.150;2022-12-31T00:44:25;7.50;99.90
14277;DHT22;7222;57.346;12.150;2022-12-31T00:46:54;7.60;99.90
14277;DHT22;7222;57.346;12.150;2022-12-31T00:49:21;7.60;99.90
14277;DHT22;7222;57.346;12.150;2022-12-31T00:51:48;7.60;99.90
14277;DHT22;7222;57.346;12.150;2022-12-31T00:54:15;7.70;99.90
14277;DHT22;7222;57.346;12.150;2022-12-31T00:56:42;7.70;99.90
14277;DHT22;7222;57.346;12.150;2022-12-31T00:59:09;7.70;99.90
14277;DHT22;7222;57.346;12.150;2022-12-31T01:01:38;7.70;99.90
14277;DHT22;7222;57.346;12.150;2022-12-31T01:04:09;7.70;99.90
14277;DHT22;7222;57.346;12.150;2022-12-31T01:06:37;7.80;99.90
14277;DHT22;7222;57.346;12.150;2022-12-31T01:09:04;7.80;99.90
14277;DHT22;7222;57.346;12.150;2022-12-31T01:11:31;7.70;99.90
14277;DHT22;7222;57.346;12.150;2022-12-31T01:14:00;7.60;99.90
14277;DHT22;7222;57.346;12.150;2022-12-31T01:16:30;7.60;99.90
14277;DHT22;7222;57.346;12.150;2022-12-31T01:18:59;7.60;99.90
14277;DHT22;7222;57.346;12.150;2022-12-31T01:21:28;7.70;99.90
14277;DHT22;7222;57.346;12.150;2022-12-31T01:23:56;7.60;99.90
14277;DHT22;7222;57.346;12.150;2022-12-31T01:26:23;7.70;99.90
14277;DHT22;7222;57.346;12.150;2022-12-31T01:28:50;7.60;99.90
14277;DHT22;7222;57.346;12.150;2022-12-31T01:31:19;7.70;99.90
14277;DHT22;7222;57.346;12.150;2022-12-31T01:33:46;7.70;99.90
14277;DHT22;7222;57.346;12.150;2022-12-31T01:36:15;7.80;99.90
14277;DHT22;7222;57.346;12.150;2022-12-31T01:38:44;7.80;99.90
14277;DHT22;7222;57.346;12.150;2022-12-31T01:41:12;7.80;99.90
14277;DHT22;7222;57.346;12.150;2022-12-31T01:43:43;7.80;99.90
14277;DHT22;7222;57.346;12.150;2022-12-31T01:46:12;8.00;99.90
14277;DHT22;7222;57.346;12.150;2022-12-31T01:48:39;7.90;99.90
14277;DHT22;7222;57.346;12.150;2022-12-31T01:51:08;8.00;99.90
14277;DHT22;7222;57.346;12.150;2022-12-31T01:53:36;8.00;99.90
14277;DHT22;7222;57.346;12.150;2022-12-31T01:56:05;8.00;99.90
14277;DHT22;7222;57.346;12.150;2022-12-31T01:58:36;8.00;99.90
14277;DHT22;7222;57.346;12.150;2022-12-31T02:01:05;7.90;99.90
14277;DHT22;7222;57.346;12.150;2022-12-31T02:03:34;7.90;99.90
14277;DHT22;7222;57.346;12.150;2022-12-31T02:06:06;8.00;99.90
14277;DHT22;7222;57.346;12.150;2022-12-31T02:08:35;7.90;99.90
14277;DHT22;7222;57.346;12.150;2022-12-31T02:11:20;7.90;99.90
14277;DHT22;7222;57.346;12.150;2022-12-31T02:13:47;7.90;99.90
14277;DHT22;7222;57.346;12.150;2022-12-31T02:16:18;8.00;99.90
14277;DHT22;7222;57.346;12.150;2022-12-31T02:18:52;8.00;99.90
14277;DHT22;7222;57.346;12.150;2022-12-31T02:21:39;8.10;99.90
14277;DHT22;7222;57.346;12.150;2022-12-31T02:27:11;8.00;99.90
14277;DHT22;7222;57.346;12.150;2022-12-31T02:30:09;8.00;99.90
14277;DHT22;7222;57.346;12.150;2022-12-31T02:32:57;8.10;99.90
14277;DHT22;7222;57.346;12.150;2022-12-31T02:35:33;8.10;99.90
14277;DHT22;7222;57.346;12.150;2022-12-31T02:38:06;8.10;99.90
14277;DHT22;7222;57.346;12.150;2022-12-31T02:40:36;8.10;99.90
14277;DHT22;7222;57.346;12.150;2022-12-31T02:43:04;8.20;99.90
14277;DHT22;7222;57.346;12.150;2022-12-31T02:45:36;8.10;99.90
14277;DHT22;7222;57.346;12.150;2022-12-31T02:48:14;8.10;99.90
14277;DHT22;7222;57.346;12.150;2022-12-31T02:50:50;8.10;99.90
14277;DHT22;7222;57.346;12.150;2022-12-31T02:53:34;8.20;99.90
14277;DHT22;7222;57.346;12.150;2022-12-31T02:56:05;8.20;99.90
14277;DHT22;7222;57.346;12.150;2022-12-31T02:58:40;8.20;99.90
14277;DHT22;7222;57.346;12.150;2022-12-31T03:01:29;8.20;99.90
14277;DHT22;7222;57.346;12.150;2022-12-31T03:04:16;8.20;99.90
14277;DHT22;7222;57.346;12.150;2022-12-31T03:07:00;8.10;99.90
14277;DHT22;7222;57.346;12.150;2022-12-31T03:09:27;8.20;99.90
14277;DHT22;7222;57.346;12.150;2022-12-31T03:11:54;8.10;99.90
14277;DHT22;7222;57.346;12.150;2022-12-31T03:14:39;8.10;99.90
14277;DHT22;7222;57.346;12.150;2022-12-31T03:17:07;8.10;99.90
14277;DHT22;7222;57.346;12.150;2022-12-31T03:19:34;8.00;99.90
14277;DHT22;7222;57.346;12.150;2022-12-31T03:22:19;8.00;99.90
14277;DHT22;7222;57.346;12.150;2022-12-31T03:24:56;8.00;99.90
14277;DHT22;7222;57.346;12.150;2022-12-31T03:27:41;8.00;99.90
14277;DHT22;7222;57.346;12.150;2022-12-31T03:30:09;8.00;99.90
14277;DHT22;7222;57.346;12.150;2022-12-31T03:32:37;8.00;99.90
14277;DHT22;7222;57.346;12.150;2022-12-31T03:35:06;8.10;99.90
14277;DHT22;7222;57.346;12.150;2022-12-31T03:37:34;8.10;99.90
14277;DHT22;7222;57.346;12.150;2022-12-31T03:40:01;8.10;99.90
14277;DHT22;7222;57.346;12.150;2022-12-31T03:42:28;8.10;99.90
14277;DHT22;7222;57.346;12.150;2022-12-31T03:44:54;8.10;99.90
14277;DHT22;7222;57.346;12.150;2022-12-31T03:47:21;8.10;99.90
14277;DHT22;7222;57.346;12.150;2022-12-31T03:49:50;8.10;99.90
14277;DHT22;7222;57.346;12.150;2022-12-31T03:52:17;8.10;99.90
14277;DHT22;7222;57.346;12.150;2022-12-31T03:54:44;8.10;99.90
14277;DHT22;7222;57.346;12.150;2022-12-31T03:57:11;8.00;99.90
14277;DHT22;7222;57.346;12.150;2022-12-31T03:59:38;8.00;99.90
14277;DHT22;7222;57.346;12.150;2022-12-31T04:02:05;8.00;99.90
14277;DHT22;7222;57.346;12.150;2022-12-31T04:04:32;7.90;99.90
14277;DHT22;7222;57.346;12.150;2022-12-31T04:07:01;7.90;99.90
14277;DHT22;7222;57.346;12.150;2022-12-31T04:09:28;8.00;99.90
14277;DHT22;7222;57.346;12.150;2022-12-31T04:11:55;7.90;99.90
14277;DHT22;7222;57.346;12.150;2022-12-31T04:14:22;8.00;99.90
14277;DHT22;7222;57.346;12.150;2022-12-31T04:16:49;8.00;99.90
14277;DHT22;7222;57.346;12.150;2022-12-31T04:19:16;7.90;99.90
14277;DHT22;7222;57.346;12.150;2022-12-31T04:21:43;7.90;99.90
14277;DHT22;7222;57.346;12.150;2022-12-31T04:24:12;7.90;99.90
14277;DHT22;7222;57.346;12.150;2022-12-31T04:26:39;7.90;99.90
14277;DHT22;7222;57.346;12.150;2022-12-31T04:29:07;8.00;99.90
14277;DHT22;7222;57.346;12.150;2022-12-31T04:31:34;8.00;99.90
14277;DHT22;7222;57.346;12.150;2022-12-31T04:34:01;7.90;99.90
14277;DHT22;7222;57.346;12.150;2022-12-31T04:36:28;7.90;99.90
14277;DHT22;7222;57.346;12.150;2022-12-31T04:38:55;7.80;99.90
14277;DHT22;7222;57.346;12.150;2022-12-31T04:41:24;7.90;99.90
14277;DHT22;7222;57.346;12.150;2022-12-31T04:43:53;7.90;99.90
14277;DHT22;7222;57.346;12.150;2022-12-31T04:46:24;8.00;99.90
14277;DHT22;7222;57.346;12.150;2022-12-31T04:48:51;8.00;99.90
14277;DHT22;7222;57.346;12.150;2022-12-31T04:51:19;8.00;99.90
14277;DHT22;7222;57.346;12.150;2022-12-31T04:53:46;8.00;99.90
14277;DHT22;7222;57.346;12.150;2022-12-31T04:56:13;8.00;99.90
14277;DHT22;7222;57.346;12.150;2022-12-31T04:58:42;8.10;99.90
14277;DHT22;7222;57.346;12.150;2022-12-31T05:01:10;8.10;99.90
14277;DHT22;7222;57.346;12.150;2022-12-31T05:03:37;8.10;99.90
14277;DHT22;7222;57.346;12.150;2022-12-31T05:06:07;8.20;99.90
14277;DHT22;7222;57.346;12.150;2022-12-31T05:08:34;8.10;99.90
14277;DHT22;7222;57.346;12.150;2022-12-31T05:11:01;8.10;99.90
14277;DHT22;7222;57.346;12.150;2022-12-31T05:13:28;8.10;99.90
14277;DHT22;7222;57.346;12.150;2022-12-31T05:15:57;8.10;99.90
14277;DHT22;7222;57.346;12.150;2022-12-31T05:18:24;8.10;99.90
14277;DHT22;7222;57.346;12.150;2022-12-31T05:20:51;8.20;99.90
14277;DHT22;7222;57.346;12.150;2022-12-31T05:23:18;8.10;99.90
14277;DHT22;7222;57.346;12.150;2022-12-31T05:25:46;8.20;99.90
14277;DHT22;7222;57.346;12.150;2022-12-31T05:28:13;8.20;99.90
14277;DHT22;7222;57.346;12.150;2022-12-31T05:30:41;8.10;99.90
14277;DHT22;7222;57.346;12.150;2022-12-31T05:33:10;8.10;99.90
14277;DHT22;7222;57.346;12.150;2022-12-31T05:35:37;8.20;99.90
14277;DHT22;7222;57.346;12.150;2022-12-31T05:38:04;8.20;99.90
14277;DHT22;7222;57.346;12.150;2022-12-31T05:40:31;8.20;99.90
14277;DHT22;7222;57.346;12.150;2022-12-31T05:42:58;8.20;99.90
14277;DHT22;7222;57.346;12.150;2022-12-31T05:45:25;8.20;99.90
14277;DHT22;7222;57.346;12.150;2022-12-31T05:47:52;8.20;99.90
14277;DHT22;7222;57.346;12.150;2022-12-31T05:50:20;8.20;99.90
14277;DHT22;7222;57.346;12.150;2022-12-31T05:52:47;8.20;99.90
14277;DHT22;7222;57.346;12.150;2022-12-31T05:55:14;8.20;99.90
14277;DHT22;7222;57.346;12.150;2022-12-31T05:57:41;8.20;99.90
14277;DHT22;7222;57.346;12.150;2022-12-31T06:00:09;8.20;99.90
14277;DHT22;7222;57.346;12.150;2022-12-31T06:02:37;8.30;99.90
14277;DHT22;7222;57.346;12.150;2022-12-31T06:05:05;8.30;99.90
14277;DHT22;7222;57.346;12.150;2022-12-31T06:07:33;8.20;99.90
14277;DHT22;7222;57.346;12.150;2022-12-31T06:10:00;8.20;99.90
14277;DHT22;7222;57.346;12.150;2022-12-31T06:12:27;8.10;99.90
14277;DHT22;7222;57.346;12.150;2022-12-31T06:14:55;8.10;99.90
14277;DHT22;7222;57.346;12.150;2022-12-31T06:17:22;8.00;99.90
14277;DHT22;7222;57.346;12.150;2022-12-31T06:19:49;8.00;99.90
14277;DHT22;7222;57.346;12.150;2022-12-31T06:22:16;7.90;99.90
14277;DHT22;7222;57.346;12.150;2022-12-31T06:24:45;7.90;99.90
14277;DHT22;7222;57.346;12.150;2022-12-31T06:27:12;8.00;99.90
14277;DHT22;7222;57.346;12.150;2022-12-31T06:29:39;7.90;99.90
14277;DHT22;7222;57.346;12.150;2022-12-31T06:32:06;7.90;99.90
14277;DHT22;7222;57.346;12.150;2022-12-31T06:34:33;7.80;99.90
14277;DHT22;7222;57.346;12.150;2022-12-31T06:37:00;7.90;99.90
14277;DHT22;7222;57.346;12.150;2022-12-31T06:39:27;7.90;99.90
14277;DHT22;7222;57.346;12.150;2022-12-31T06:41:56;7.90;99.90
14277;DHT22;7222;57.346;12.150;2022-12-31T06:44:24;7.90;99.90
14277;DHT22;7222;57.346;12.150;2022-12-31T06:46:51;7.90;99.90
14277;DHT22;7222;57.346;12.150;2022-12-31T06:49:18;7.90;99.90
14277;DHT22;7222;57.346;12.150;2022-12-31T06:51:45;7.80;99.90
14277;DHT22;7222;57.346;12.150;2022-12-31T06:54:12;7.90;99.90
14277;DHT22;7222;57.346;12.150;2022-12-31T06:56:40;7.90;99.90
14277;DHT22;7222;57.346;12.150;2022-12-31T06:59:21;8.00;99.90
14277;DHT22;7222;57.346;12.150;2022-12-31T07:02:04;8.00;99.90
14277;DHT22;7222;57.346;12.150;2022-12-31T07:07:40;7.90;99.90
14277;DHT22;7222;57.346;12.150;2022-12-31T07:10:18;7.90;99.90
14277;DHT22;7222;57.346;12.150;2022-12-31T07:16:08;7.90;99.90
14277;DHT22;7222;57.346;12.150;2022-12-31T07:18:44;7.90;99.90
14277;DHT22;7222;57.346;12.150;2022-12-31T07:21:14;7.90;99.90
14277;DHT22;7222;57.346;12.150;2022-12-31T07:23:42;7.90;99.90
14277;DHT22;7222;57.346;12.150;2022-12-31T07:26:29;7.90;99.90
14277;DHT22;7222;57.346;12.150;2022-12-31T07:29:07;7.90;99.90
14277;DHT22;7222;57.346;12.150;2022-12-31T07:31:53;7.80;99.90
14277;DHT22;7222;57.346;12.150;2022-12-31T07:34:26;7.90;99.90
14277;DHT22;7222;57.346;12.150;2022-12-31T07:37:02;7.90;99.90
14277;DHT22;7222;57.346;12.150;2022-12-31T07:39:40;7.80;99.90
14277;DHT22;7222;57.346;12.150;2022-12-31T07:42:13;7.90;99.90
14277;DHT22;7222;57.346;12.150;2022-12-31T07:44:49;7.90;99.90
14277;DHT22;7222;57.346;12.150;2022-12-31T07:47:24;7.90;99.90
14277;DHT22;7222;57.346;12.150;2022-12-31T07:49:52;8.00;99.90
14277;DHT22;7222;57.346;12.150;2022-12-31T07:52:20;8.00;99.90
14277;DHT22;7222;57.346;12.150;2022-12-31T07:54:47;7.90;99.90
14277;DHT22;7222;57.346;12.150;2022-12-31T07:57:17;7.90;99.90
14277;DHT22;7222;57.346;12.150;2022-12-31T07:59:53;7.90;99.90
14277;DHT22;7222;57.346;12.150;2022-12-31T08:02:37;7.80;99.90
14277;DHT22;7222;57.346;12.150;2022-12-31T08:05:14;7.80;99.90
14277;DHT22;7222;57.346;12.150;2022-12-31T08:07:48;7.80;99.90
14277;DHT22;7222;57.346;12.150;2022-12-31T08:10:19;7.70;99.90
14277;DHT22;7222;57.346;12.150;2022-12-31T08:12:57;7.80;99.90
14277;DHT22;7222;57.346;12.150;2022-12-31T08:15:27;7.80;99.90
14277;DHT22;7222;57.346;12.150;2022-12-31T08:17:56;7.70;99.90
14277;DHT22;7222;57.346;12.150;2022-12-31T08:20:24;7.70;99.90
14277;DHT22;7222;57.346;12.150;2022-12-31T08:23:10;7.70;99.90
14277;DHT22;7222;57.346;12.150;2022-12-31T08:26:00;7.70;99.90
14277;DHT22;7222;57.346;12.150;2022-12-31T08:28:41;7.60;99.90
14277;DHT22;7222;57.346;12.150;2022-12-31T08:31:15;7.60;99.90
14277;DHT22;7222;57.346;12.150;2022-12-31T08:33:50;7.60;99.90
14277;DHT22;7222;57.346;12.150;2022-12-31T08:36:25;7.60;99.90
14277;DHT22;7222;57.346;12.150;2022-12-31T08:38:56;7.60;99.90
14277;DHT22;7222;57.346;12.150;2022-12-31T08:41:28;7.60;99.90
14277;DHT22;7222;57.346;12.150;2022-12-31T08:44:05;7.50;99.90
14277;DHT22;7222;57.346;12.150;2022-12-31T08:46:42;7.60;99.90
14277;DHT22;7222;57.346;12.150;2022-12-31T08:49:13;7.60;99.90
14277;DHT22;7222;57.346;12.150;2022-12-31T08:51:41;7.60;99.90
14277;DHT22;7222;57.346;12.150;2022-12-31T08:54:10;7.60;99.90
14277;DHT22;7222;57.346;12.150;2022-12-31T08:56:43;7.60;99.90
14277;DHT22;7222;57.346;12.150;2022-12-31T08:59:23;7.60;99.90
14277;DHT22;7222;57.346;12.150;2022-12-31T09:02:21;7.60;99.90
14277;DHT22;7222;57.346;12.150;2022-12-31T09:05:02;7.70;99.90
14277;DHT22;7222;57.346;12.150;2022-12-31T09:07:35;7.70;99.90
14277;DHT22;7222;57.346;12.150;2022-12-31T09:10:13;7.70;99.90
14277;DHT22;7222;57.346;12.150;2022-12-31T09:12:48;7.70;99.90
14277;DHT22;7222;57.346;12.150;2022-12-31T09:15:21;7.80;99.90
14277;DHT22;7222;57.346;12.150;2022-12-31T09:17:51;7.80;99.90
14277;DHT22;7222;57.346;12.150;2022-12-31T09:20:25;7.80;99.90
14277;DHT22;7222;57.346;12.150;2022-12-31T09:22:53;7.80;99.90
14277;DHT22;7222;57.346;12.150;2022-12-31T09:25:22;7.80;99.90
14277;DHT22;7222;57.346;12.150;2022-12-31T09:27:59;7.80;99.90
14277;DHT22;7222;57.346;12.150;2022-12-31T09:30:35;7.80;99.90
14277;DHT22;7222;57.346;12.150;2022-12-31T09:33:10;7.80;99.90
14277;DHT22;7222;57.346;12.150;2022-12-31T09:35:44;7.80;99.90
14277;DHT22;7222;57.346;12.150;2022-12-31T09:38:17;7.90;99.90
14277;DHT22;7222;57.346;12.150;2022-12-31T09:41:02;8.00;99.90
14277;DHT22;7222;57.346;12.150;2022-12-31T09:50:21;8.00;99.90
14277;DHT22;7222;57.346;12.150;2022-12-31T09:53:20;7.90;99.90
14277;DHT22;7222;57.346;12.150;2022-12-31T09:55:55;7.90;99.90
14277;DHT22;7222;57.346;12.150;2022-12-31T09:58:40;7.90;99.90
14277;DHT22;7222;57.346;12.150;2022-12-31T10:01:17;7.90;99.90
14277;DHT22;7222;57.346;12.150;2022-12-31T10:07:07;8.00;99.90
14277;DHT22;7222;57.346;12.150;2022-12-31T10:09:51;8.00;99.90
14277;DHT22;7222;57.346;12.150;2022-12-31T10:12:45;8.00;99.90
14277;DHT22;7222;57.346;12.150;2022-12-31T10:18:28;8.00;99.90
14277;DHT22;7222;57.346;12.150;2022-12-31T10:21:10;8.00;99.90
14277;DHT22;7222;57.346;12.150;2022-12-31T10:23:57;8.10;99.90
14277;DHT22;7222;57.346;12.150;2022-12-31T10:26:46;8.10;99.90
14277;DHT22;7222;57.346;12.150;2022-12-31T10:29:23;8.00;99.90
14277;DHT22;7222;57.346;12.150;2022-12-31T10:32:04;8.00;99.90
14277;DHT22;7222;57.346;12.150;2022-12-31T10:34:46;8.00;99.90
14277;DHT22;7222;57.346;12.150;2022-12-31T10:37:19;7.90;99.90
14277;DHT22;7222;57.346;12.150;2022-12-31T10:39:55;7.90;99.90
14277;DHT22;7222;57.346;12.150;2022-12-31T10:42:56;7.80;99.90
14277;DHT22;7222;57.346;12.150;2022-12-31T10:48:50;7.80;99.90
14277;DHT22;7222;57.346;12.150;2022-12-31T10:51:57;7.80;99.90
14277;DHT22;7222;57.346;12.150;2022-12-31T10:54:52;7.90;99.90
14277;DHT22;7222;57.346;12.150;2022-12-31T10:57:50;7.90;99.90
14277;DHT22;7222;57.346;12.150;2022-12-31T11:00:28;7.90;99.90
14277;DHT22;7222;57.346;12.150;2022-12-31T11:03:22;7.90;99.90
14277;DHT22;7222;57.346;12.150;2022-12-31T11:09:26;8.00;99.90
14277;DHT22;7222;57.346;12.150;2022-12-31T11:12:04;8.10;99.90
14277;DHT22;7222;57.346;12.150;2022-12-31T11:14:59;8.10;99.90
14277;DHT22;7222;57.346;12.150;2022-12-31T11:17:48;8.10;99.90
14277;DHT22;7222;57.346;12.150;2022-12-31T11:20:38;8.00;99.90
14277;DHT22;7222;57.346;12.150;2022-12-31T11:23:23;8.00;99.90
14277;DHT22;7222;57.346;12.150;2022-12-31T11:26:00;8.00;99.90
14277;DHT22;7222;57.346;12.150;2022-12-31T11:28:53;8.00;99.90
14277;DHT22;7222;57.346;12.150;2022-12-31T11:31:39;8.00;99.90
14277;DHT22;7222;57.346;12.150;2022-12-31T11:34:22;7.90;99.90
14277;DHT22;7222;57.346;12.150;2022-12-31T11:37:06;7.90;99.90
14277;DHT22;7222;57.346;12.150;2022-12-31T11:39:46;7.90;99.90
14277;DHT22;7222;57.346;12.150;2022-12-31T11:42:20;7.80;99.90
14277;DHT22;7222;57.346;12.150;2022-12-31T11:44:56;7.90;99.90
14277;DHT22;7222;57.346;12.150;2022-12-31T11:47:42;7.80;99.90
14277;DHT22;7222;57.346;12.150;2022-12-31T11:50:37;7.80;99.90
14277;DHT22;7222;57.346;12.150;2022-12-31T11:56:08;7.80;99.90
14277;DHT22;7222;57.346;12.150;2022-12-31T11:58:44;7.80;99.90
14277;DHT22;7222;57.346;12.150;2022-12-31T12:01:17;7.80;99.90
14277;DHT22;7222;57.346;12.150;2022-12-31T12:03:47;7.80;99.90
14277;DHT22;7222;57.346;12.150;2022-12-31T12:06:19;7.90;99.90
14277;DHT22;7222;57.346;12.150;2022-12-31T12:08:49;7.90;99.90
14277;DHT22;7222;57.346;12.150;2022-12-31T12:11:19;7.90;99.90
14277;DHT22;7222;57.346;12.150;2022-12-31T12:13:47;7.90;99.90
14277;DHT22;7222;57.346;12.150;2022-12-31T12:16:14;7.90;99.90
14277;DHT22;7222;57.346;12.150;2022-12-31T12:18:44;8.00;99.90
14277;DHT22;7222;57.346;12.150;2022-12-31T12:21:16;8.00;99.90
14277;DHT22;7222;57.346;12.150;2022-12-31T12:23:54;8.00;99.90
14277;DHT22;7222;57.346;12.150;2022-12-31T12:26:32;7.90;99.90
14277;DHT22;7222;57.346;12.150;2022-12-31T12:29:08;7.90;99.90
14277;DHT22;7222;57.346;12.150;2022-12-31T12:31:35;7.80;99.90
14277;DHT22;7222;57.346;12.150;2022-12-31T12:34:02;7.80;99.90
14277;DHT22;7222;57.346;12.150;2022-12-31T12:36:32;7.80;99.90
14277;DHT22;7222;57.346;12.150;2022-12-31T12:39:00;7.70;99.90
14277;DHT22;7222;57.346;12.150;2022-12-31T12:41:27;7.70;99.90
14277;DHT22;7222;57.346;12.150;2022-12-31T12:44:02;7.70;99.90
14277;DHT22;7222;57.346;12.150;2022-12-31T12:46:32;7.70;99.90
14277;DHT22;7222;57.346;12.150;2022-12-31T12:49:00;7.70;99.90
14277;DHT22;7222;57.346;12.150;2022-12-31T12:51:43;7.70;99.90
14277;DHT22;7222;57.346;12.150;2022-12-31T12:54:22;7.60;99.90
14277;DHT22;7222;57.346;12.150;2022-12-31T12:56:59;7.60;99.90
14277;DHT22;7222;57.346;12.150;2022-12-31T13:03:00;7.60;99.90
14277;DHT22;7222;57.346;12.150;2022-12-31T13:05:45;7.60;99.90
14277;DHT22;7222;57.346;12.150;2022-12-31T13:08:25;7.50;99.90
14277;DHT22;7222;57.346;12.150;2022-12-31T13:11:08;7.60;99.90
14277;DHT22;7222;57.346;12.150;2022-12-31T13:13:47;7.60;99.90
14277;DHT22;7222;57.346;12.150;2022-12-31T13:16:23;7.50;99.90
14277;DHT22;7222;57.346;12.150;2022-12-31T13:18:58;7.50;99.90
14277;DHT22;7222;57.346;12.150;2022-12-31T13:21:37;7.50;99.90
14277;DHT22;7222;57.346;12.150;2022-12-31T13:24:17;7.50;99.90
14277;DHT22;7222;57.346;12.150;2022-12-31T13:26:49;7.50;99.90
14277;DHT22;7222;57.346;12.150;2022-12-31T13:29:21;7.40;99.90
14277;DHT22;7222;57.346;12.150;2022-12-31T13:31:49;7.40;99.90
14277;DHT22;7222;57.346;12.150;2022-12-31T13:34:20;7.40;99.90
14277;DHT22;7222;57.346;12.150;2022-12-31T13:36:50;7.40;99.90
14277;DHT22;7222;57.346;12.150;2022-12-31T13:39:23;7.40;99.90
14277;DHT22;7222;57.346;12.150;2022-12-31T13:41:54;7.40;99.90
14277;DHT22;7222;57.346;12.150;2022-12-31T13:44:27;7.30;99.90
14277;DHT22;7222;57.346;12.150;2022-12-31T13:47:01;7.30;99.90
14277;DHT22;7222;57.346;12.150;2022-12-31T13:49:32;7.30;99.90
14277;DHT22;7222;57.346;12.150;2022-12-31T13:52:20;7.30;99.90
14277;DHT22;7222;57.346;12.150;2022-12-31T13:54:53;7.30;99.90
14277;DHT22;7222;57.346;12.150;2022-12-31T13:57:31;7.40;99.90
14277;DHT22;7222;57.346;12.150;2022-12-31T14:00:03;7.40;99.90
14277;DHT22;7222;57.346;12.150;2022-12-31T14:02:34;7.50;99.90
14277;DHT22;7222;57.346;12.150;2022-12-31T14:05:13;7.50;99.90
14277;DHT22;7222;57.346;12.150;2022-12-31T14:07:45;7.50;99.90
14277;DHT22;7222;57.346;12.150;2022-12-31T14:10:15;7.50;99.90
14277;DHT22;7222;57.346;12.150;2022-12-31T14:12:51;7.40;99.90
14277;DHT22;7222;57.346;12.150;2022-12-31T14:15:24;7.50;99.90
14277;DHT22;7222;57.346;12.150;2022-12-31T14:18:00;7.50;99.90
14277;DHT22;7222;57.346;12.150;2022-12-31T14:20:38;7.50;99.90
14277;DHT22;7222;57.346;12.150;2022-12-31T14:23:15;7.40;99.90
14277;DHT22;7222;57.346;12.150;2022-12-31T14:25:51;7.50;99.90
14277;DHT22;7222;57.346;12.150;2022-12-31T14:28:25;7.50;99.90
14277;DHT22;7222;57.346;12.150;2022-12-31T14:30:57;7.40;99.90
14277;DHT22;7222;57.346;12.150;2022-12-31T14:33:35;7.40;99.90
14277;DHT22;7222;57.346;12.150;2022-12-31T14:36:11;7.40;99.90
14277;DHT22;7222;57.346;12.150;2022-12-31T14:38:51;7.30;99.90
14277;DHT22;7222;57.346;12.150;2022-12-31T14:41:33;7.30;99.90
14277;DHT22;7222;57.346;12.150;2022-12-31T14:44:10;7.30;99.90
14277;DHT22;7222;57.346;12.150;2022-12-31T14:46:56;7.30;99.90
14277;DHT22;7222;57.346;12.150;2022-12-31T14:49:35;7.30;99.90
14277;DHT22;7222;57.346;12.150;2022-12-31T14:52:19;7.20;99.90
14277;DHT22;7222;57.346;12.150;2022-12-31T14:54:57;7.20;99.90
14277;DHT22;7222;57.346;12.150;2022-12-31T14:57:33;7.20;99.90
14277;DHT22;7222;57.346;12.150;2022-12-31T15:00:22;7.20;99.90
14277;DHT22;7222;57.346;12.150;2022-12-31T15:02:51;7.20;99.90
14277;DHT22;7222;57.346;12.150;2022-12-31T15:05:21;7.20;99.90
14277;DHT22;7222;57.346;12.150;2022-12-31T15:10:52;7.10;99.90
14277;DHT22;7222;57.346;12.150;2022-12-31T15:13:37;7.00;99.90
14277;DHT22;7222;57.346;12.150;2022-12-31T15:16:29;7.10;99.90
14277;DHT22;7222;57.346;12.150;2022-12-31T15:19:38;7.00;99.90
14277;DHT22;7222;57.346;12.150;2022-12-31T15:22:23;7.10;99.90
14277;DHT22;7222;57.346;12.150;2022-12-31T15:24:51;7.00;99.90
14277;DHT22;7222;57.346;12.150;2022-12-31T15:27:30;7.00;99.90
14277;DHT22;7222;57.346;12.150;2022-12-31T15:30:03;7.00;99.90
14277;DHT22;7222;57.346;12.150;2022-12-31T15:32:38;7.00;99.90
14277;DHT22;7222;57.346;12.150;2022-12-31T15:35:25;7.10;99.90
14277;DHT22;7222;57.346;12.150;2022-12-31T15:38:00;7.00;99.90
14277;DHT22;7222;57.346;12.150;2022-12-31T15:40:28;7.00;99.90
14277;DHT22;7222;57.346;12.150;2022-12-31T15:42:59;7.00;99.90
14277;DHT22;7222;57.346;12.150;2022-12-31T15:45:35;7.00;99.90
14277;DHT22;7222;57.346;12.150;2022-12-31T15:48:07;7.00;99.90
14277;DHT22;7222;57.346;12.150;2022-12-31T15:50:35;7.00;99.90
14277;DHT22;7222;57.346;12.150;2022-12-31T15:53:05;6.90;99.90
14277;DHT22;7222;57.346;12.150;2022-12-31T15:55:36;6.90;99.90
14277;DHT22;7222;57.346;12.150;2022-12-31T15:58:10;7.00;99.90
14277;DHT22;7222;57.346;12.150;2022-12-31T16:00:56;7.00;99.90
14277;DHT22;7222;57.346;12.150;2022-12-31T16:03:28;7.10;99.90
14277;DHT22;7222;57.346;12.150;2022-12-31T16:05:59;7.10;99.90
14277;DHT22;7222;57.346;12.150;2022-12-31T16:08:29;7.00;99.90
14277;DHT22;7222;57.346;12.150;2022-12-31T16:10:57;6.90;99.90
14277;DHT22;7222;57.346;12.150;2022-12-31T16:13:26;7.10;99.90
14277;DHT22;7222;57.346;12.150;2022-12-31T16:16:00;7.10;99.90
14277;DHT22;7222;57.346;12.150;2022-12-31T16:18:36;7.10;99.90
14277;DHT22;7222;57.346;12.150;2022-12-31T16:21:04;7.10;99.90
14277;DHT22;7222;57.346;12.150;2022-12-31T16:23:32;7.10;99.90
14277;DHT22;7222;57.346;12.150;2022-12-31T16:26:00;7.00;99.90
14277;DHT22;7222;57.346;12.150;2022-12-31T16:28:31;7.00;99.90
14277;DHT22;7222;57.346;12.150;2022-12-31T16:31:02;7.10;99.90
14277;DHT22;7222;57.346;12.150;2022-12-31T16:33:30;7.10;99.90
14277;DHT22;7222;57.346;12.150;2022-12-31T16:36:00;7.00;99.90
14277;DHT22;7222;57.346;12.150;2022-12-31T16:38:31;7.00;99.90
14277;DHT22;7222;57.346;12.150;2022-12-31T16:41:13;7.00;99.90
14277;DHT22;7222;57.346;12.150;2022-12-31T16:43:42;7.10;99.90
14277;DHT22;7222;57.346;12.150;2022-12-31T16:46:15;7.10;99.90
14277;DHT22;7222;57.346;12.150;2022-12-31T16:48:48;7.10;99.90
14277;DHT22;7222;57.346;12.150;2022-12-31T16:51:20;7.10;99.90
14277;DHT22;7222;57.346;12.150;2022-12-31T16:53:48;7.00;99.90
14277;DHT22;7222;57.346;12.150;2022-12-31T16:56:22;7.00;99.90
14277;DHT22;7222;57.346;12.150;2022-12-31T16:58:53;7.00;99.90
14277;DHT22;7222;57.346;12.150;2022-12-31T17:01:26;7.00;99.90
14277;DHT22;7222;57.346;12.150;2022-12-31T17:03:58;7.00;99.90